Terminal Aerodrome Forecast
Issued by NWS

Current Version | Previous Version | Text Only | Print | Product List | Glossary On
Versions: 1 2 3 4 5 6 7 8 9 10 11 12 13 14
000
FTUS42 KGSP 202300
TAFAND
TAF
KAND 202332Z 2100/2124 24003KT P6SM SCT130
     FM210100 00000KT P6SM SCT120
     FM211600 26007KT P6SM FEW250=

USA.gov is the U.S. government's official web portal to all federal, state and local government web resources and services.